sensor_id;sensor_type;location;lat;lon;timestamp;temperature;humidity
32394;DHT22;18853;45.426;9.206;2023-11-22T00:01:05;15.60;53.80
32394;DHT22;18853;45.426;9.206;2023-11-22T00:03:31;15.60;53.60
32394;DHT22;18853;45.426;9.206;2023-11-22T00:05:57;15.60;53.50
32394;DHT22;18853;45.426;9.206;2023-11-22T00:08:22;15.50;53.60
32394;DHT22;18853;45.426;9.206;2023-11-22T00:10:48;15.60;53.60
32394;DHT22;18853;45.426;9.206;2023-11-22T00:13:13;15.50;53.60
32394;DHT22;18853;45.426;9.206;2023-11-22T00:15:40;15.50;53.60
32394;DHT22;18853;45.426;9.206;2023-11-22T00:18:05;15.50;53.80
32394;DHT22;18853;45.426;9.206;2023-11-22T00:20:31;15.40;53.80
32394;DHT22;18853;45.426;9.206;2023-11-22T00:22:57;15.40;53.80
32394;DHT22;18853;45.426;9.206;2023-11-22T00:25:22;15.40;53.80
32394;DHT22;18853;45.426;9.206;2023-11-22T00:27:48;15.40;53.70
32394;DHT22;18853;45.426;9.206;2023-11-22T00:30:14;15.40;53.70
32394;DHT22;18853;45.426;9.206;2023-11-22T00:32:40;15.40;53.60
32394;DHT22;18853;45.426;9.206;2023-11-22T00:35:09;15.40;53.70
32394;DHT22;18853;45.426;9.206;2023-11-22T00:37:34;15.40;53.60
32394;DHT22;18853;45.426;9.206;2023-11-22T00:40:00;15.40;53.80
32394;DHT22;18853;45.426;9.206;2023-11-22T00:42:31;15.30;53.60
32394;DHT22;18853;45.426;9.206;2023-11-22T00:44:57;15.30;53.80
32394;DHT22;18853;45.426;9.206;2023-11-22T00:47:22;15.30;53.70
32394;DHT22;18853;45.426;9.206;2023-11-22T00:49:48;15.30;53.70
32394;DHT22;18853;45.426;9.206;2023-11-22T00:52:13;15.30;53.80
32394;DHT22;18853;45.426;9.206;2023-11-22T00:54:39;15.20;53.80
32394;DHT22;18853;45.426;9.206;2023-11-22T00:57:04;15.20;53.90
32394;DHT22;18853;45.426;9.206;2023-11-22T00:59:32;15.20;53.80
32394;DHT22;18853;45.426;9.206;2023-11-22T01:01:58;15.20;53.80
32394;DHT22;18853;45.426;9.206;2023-11-22T01:04:24;15.30;53.80
32394;DHT22;18853;45.426;9.206;2023-11-22T01:06:49;15.30;53.70
32394;DHT22;18853;45.426;9.206;2023-11-22T01:09:15;15.30;54.30
32394;DHT22;18853;45.426;9.206;2023-11-22T01:11:40;15.20;53.60
32394;DHT22;18853;45.426;9.206;2023-11-22T01:14:06;15.20;53.70
32394;DHT22;18853;45.426;9.206;2023-11-22T01:16:32;15.20;53.80
32394;DHT22;18853;45.426;9.206;2023-11-22T01:18:57;15.20;53.80
32394;DHT22;18853;45.426;9.206;2023-11-22T01:21:23;15.20;53.80
32394;DHT22;18853;45.426;9.206;2023-11-22T01:23:49;15.20;53.80
32394;DHT22;18853;45.426;9.206;2023-11-22T01:26:14;15.10;53.80
32394;DHT22;18853;45.426;9.206;2023-11-22T01:28:42;15.20;53.80
32394;DHT22;18853;45.426;9.206;2023-11-22T01:31:11;15.20;53.70
32394;DHT22;18853;45.426;9.206;2023-11-22T01:33:37;15.20;53.50
32394;DHT22;18853;45.426;9.206;2023-11-22T01:36:02;15.20;53.50
32394;DHT22;18853;45.426;9.206;2023-11-22T01:38:28;15.20;53.60
32394;DHT22;18853;45.426;9.206;2023-11-22T01:40:54;15.10;53.60
32394;DHT22;18853;45.426;9.206;2023-11-22T01:43:20;15.20;53.60
32394;DHT22;18853;45.426;9.206;2023-11-22T01:45:53;15.10;53.60
32394;DHT22;18853;45.426;9.206;2023-11-22T01:48:19;15.10;53.70
32394;DHT22;18853;45.426;9.206;2023-11-22T01:50:46;15.10;53.60
32394;DHT22;18853;45.426;9.206;2023-11-22T01:53:14;15.10;53.60
32394;DHT22;18853;45.426;9.206;2023-11-22T01:55:42;15.10;53.60
32394;DHT22;18853;45.426;9.206;2023-11-22T01:58:08;15.10;53.70
32394;DHT22;18853;45.426;9.206;2023-11-22T02:00:54;15.10;53.80
32394;DHT22;18853;45.426;9.206;2023-11-22T02:03:20;15.10;53.80
32394;DHT22;18853;45.426;9.206;2023-11-22T02:05:46;15.00;54.00
32394;DHT22;18853;45.426;9.206;2023-11-22T02:08:12;14.90;53.90
32394;DHT22;18853;45.426;9.206;2023-11-22T02:10:38;14.90;53.90
32394;DHT22;18853;45.426;9.206;2023-11-22T02:13:05;14.80;53.90
32394;DHT22;18853;45.426;9.206;2023-11-22T02:15:35;14.70;53.90
32394;DHT22;18853;45.426;9.206;2023-11-22T02:18:02;14.70;53.90
32394;DHT22;18853;45.426;9.206;2023-11-22T02:20:28;14.60;53.90
32394;DHT22;18853;45.426;9.206;2023-11-22T02:22:54;14.50;54.00
32394;DHT22;18853;45.426;9.206;2023-11-22T02:25:20;14.50;54.10
32394;DHT22;18853;45.426;9.206;2023-11-22T02:27:46;14.40;54.10
32394;DHT22;18853;45.426;9.206;2023-11-22T02:30:12;14.40;54.10
32394;DHT22;18853;45.426;9.206;2023-11-22T02:32:37;14.30;54.10
32394;DHT22;18853;45.426;9.206;2023-11-22T02:35:04;14.30;54.30
32394;DHT22;18853;45.426;9.206;2023-11-22T02:37:36;14.20;54.30
32394;DHT22;18853;45.426;9.206;2023-11-22T02:40:17;14.20;54.50
32394;DHT22;18853;45.426;9.206;2023-11-22T02:42:49;14.20;54.50
32394;DHT22;18853;45.426;9.206;2023-11-22T02:45:16;14.10;54.60
32394;DHT22;18853;45.426;9.206;2023-11-22T02:47:43;14.00;54.60
32394;DHT22;18853;45.426;9.206;2023-11-22T02:50:10;14.00;54.70
32394;DHT22;18853;45.426;9.206;2023-11-22T02:52:37;14.00;54.70
32394;DHT22;18853;45.426;9.206;2023-11-22T02:55:03;14.00;54.70
32394;DHT22;18853;45.426;9.206;2023-11-22T02:57:30;13.90;54.80
32394;DHT22;18853;45.426;9.206;2023-11-22T02:59:57;13.90;54.80
32394;DHT22;18853;45.426;9.206;2023-11-22T03:02:22;13.80;54.90
32394;DHT22;18853;45.426;9.206;2023-11-22T03:04:52;13.80;55.00
32394;DHT22;18853;45.426;9.206;2023-11-22T03:07:18;13.80;55.20
32394;DHT22;18853;45.426;9.206;2023-11-22T03:09:44;13.70;55.20
32394;DHT22;18853;45.426;9.206;2023-11-22T03:12:11;13.70;55.30
32394;DHT22;18853;45.426;9.206;2023-11-22T03:14:38;13.70;55.40
32394;DHT22;18853;45.426;9.206;2023-11-22T03:17:05;13.70;55.50
32394;DHT22;18853;45.426;9.206;2023-11-22T03:19:30;13.70;55.50
32394;DHT22;18853;45.426;9.206;2023-11-22T03:21:56;13.70;55.50
32394;DHT22;18853;45.426;9.206;2023-11-22T03:24:22;13.70;55.60
32394;DHT22;18853;45.426;9.206;2023-11-22T03:26:47;13.70;55.60
32394;DHT22;18853;45.426;9.206;2023-11-22T03:29:17;13.60;55.70
32394;DHT22;18853;45.426;9.206;2023-11-22T03:31:43;13.60;55.70
32394;DHT22;18853;45.426;9.206;2023-11-22T03:34:09;13.60;55.70
32394;DHT22;18853;45.426;9.206;2023-11-22T03:36:35;13.50;55.70
32394;DHT22;18853;45.426;9.206;2023-11-22T03:39:00;13.50;55.70
32394;DHT22;18853;45.426;9.206;2023-11-22T03:41:26;13.50;55.70
32394;DHT22;18853;45.426;9.206;2023-11-22T03:43:51;13.40;55.70
32394;DHT22;18853;45.426;9.206;2023-11-22T03:46:17;13.40;55.60
32394;DHT22;18853;45.426;9.206;2023-11-22T03:48:43;13.40;55.70
32394;DHT22;18853;45.426;9.206;2023-11-22T03:51:08;13.30;55.70
32394;DHT22;18853;45.426;9.206;2023-11-22T03:53:34;13.30;55.80
32394;DHT22;18853;45.426;9.206;2023-11-22T03:55:59;13.20;56.00
32394;DHT22;18853;45.426;9.206;2023-11-22T03:58:25;13.20;56.10
32394;DHT22;18853;45.426;9.206;2023-11-22T04:00:51;13.20;56.30
32394;DHT22;18853;45.426;9.206;2023-11-22T04:03:18;13.20;56.10
32394;DHT22;18853;45.426;9.206;2023-11-22T04:05:44;13.20;56.60
32394;DHT22;18853;45.426;9.206;2023-11-22T04:08:10;13.20;56.90
32394;DHT22;18853;45.426;9.206;2023-11-22T04:10:35;13.20;57.00
32394;DHT22;18853;45.426;9.206;2023-11-22T04:13:01;13.20;56.90
32394;DHT22;18853;45.426;9.206;2023-11-22T04:15:26;13.10;56.90
32394;DHT22;18853;45.426;9.206;2023-11-22T04:17:52;13.10;56.70
32394;DHT22;18853;45.426;9.206;2023-11-22T04:20:20;13.10;56.70
32394;DHT22;18853;45.426;9.206;2023-11-22T04:22:45;13.10;56.80
32394;DHT22;18853;45.426;9.206;2023-11-22T04:25:11;13.10;56.80
32394;DHT22;18853;45.426;9.206;2023-11-22T04:27:41;13.10;56.80
32394;DHT22;18853;45.426;9.206;2023-11-22T04:30:08;13.00;56.80
32394;DHT22;18853;45.426;9.206;2023-11-22T04:32:35;13.00;56.80
32394;DHT22;18853;45.426;9.206;2023-11-22T04:35:02;13.00;57.40
32394;DHT22;18853;45.426;9.206;2023-11-22T04:37:29;13.00;56.90
32394;DHT22;18853;45.426;9.206;2023-11-22T04:39:58;13.00;56.90
32394;DHT22;18853;45.426;9.206;2023-11-22T04:42:23;13.00;56.90
32394;DHT22;18853;45.426;9.206;2023-11-22T04:44:49;12.90;56.90
32394;DHT22;18853;45.426;9.206;2023-11-22T04:47:14;12.90;57.00
32394;DHT22;18853;45.426;9.206;2023-11-22T04:49:40;12.90;57.00
32394;DHT22;18853;45.426;9.206;2023-11-22T04:52:06;12.80;57.00
32394;DHT22;18853;45.426;9.206;2023-11-22T04:54:31;12.80;57.00
32394;DHT22;18853;45.426;9.206;2023-11-22T04:56:58;12.80;56.90
32394;DHT22;18853;45.426;9.206;2023-11-22T04:59:24;12.70;56.90
32394;DHT22;18853;45.426;9.206;2023-11-22T05:01:49;12.70;56.90
32394;DHT22;18853;45.426;9.206;2023-11-22T05:04:15;12.70;57.00
32394;DHT22;18853;45.426;9.206;2023-11-22T05:06:40;12.70;57.00
32394;DHT22;18853;45.426;9.206;2023-11-22T05:09:06;12.70;57.10
32394;DHT22;18853;45.426;9.206;2023-11-22T05:11:32;12.70;57.20
32394;DHT22;18853;45.426;9.206;2023-11-22T05:13:57;12.60;57.30
32394;DHT22;18853;45.426;9.206;2023-11-22T05:16:23;12.60;57.30
32394;DHT22;18853;45.426;9.206;2023-11-22T05:18:49;12.60;57.30
32394;DHT22;18853;45.426;9.206;2023-11-22T05:21:15;12.60;57.30
32394;DHT22;18853;45.426;9.206;2023-11-22T05:23:41;12.60;57.30
32394;DHT22;18853;45.426;9.206;2023-11-22T05:26:06;12.60;57.30
32394;DHT22;18853;45.426;9.206;2023-11-22T05:28:33;12.60;57.30
32394;DHT22;18853;45.426;9.206;2023-11-22T05:30:59;12.60;57.40
32394;DHT22;18853;45.426;9.206;2023-11-22T05:33:25;12.60;57.50
32394;DHT22;18853;45.426;9.206;2023-11-22T05:35:50;12.60;57.40
32394;DHT22;18853;45.426;9.206;2023-11-22T05:38:16;12.60;57.40
32394;DHT22;18853;45.426;9.206;2023-11-22T05:40:42;12.60;57.40
32394;DHT22;18853;45.426;9.206;2023-11-22T05:43:09;12.60;57.50
32394;DHT22;18853;45.426;9.206;2023-11-22T05:45:35;12.60;57.60
32394;DHT22;18853;45.426;9.206;2023-11-22T05:48:01;12.60;57.70
32394;DHT22;18853;45.426;9.206;2023-11-22T05:50:26;12.60;57.70
32394;DHT22;18853;45.426;9.206;2023-11-22T05:52:52;12.50;57.70
32394;DHT22;18853;45.426;9.206;2023-11-22T05:55:18;12.50;57.80
32394;DHT22;18853;45.426;9.206;2023-11-22T05:57:44;12.50;57.90
32394;DHT22;18853;45.426;9.206;2023-11-22T06:00:10;12.50;58.00
32394;DHT22;18853;45.426;9.206;2023-11-22T06:02:36;12.50;58.00
32394;DHT22;18853;45.426;9.206;2023-11-22T06:05:04;12.50;58.00
32394;DHT22;18853;45.426;9.206;2023-11-22T06:07:31;12.50;58.10
32394;DHT22;18853;45.426;9.206;2023-11-22T06:09:57;12.50;58.10
32394;DHT22;18853;45.426;9.206;2023-11-22T06:12:23;12.50;58.10
32394;DHT22;18853;45.426;9.206;2023-11-22T06:14:48;12.50;58.10
32394;DHT22;18853;45.426;9.206;2023-11-22T06:17:14;12.50;58.20
32394;DHT22;18853;45.426;9.206;2023-11-22T06:19:40;12.50;58.30
32394;DHT22;18853;45.426;9.206;2023-11-22T06:22:07;12.50;58.30
32394;DHT22;18853;45.426;9.206;2023-11-22T06:24:33;12.50;58.20
32394;DHT22;18853;45.426;9.206;2023-11-22T06:27:01;12.50;58.20
32394;DHT22;18853;45.426;9.206;2023-11-22T06:29:27;12.50;58.10
32394;DHT22;18853;45.426;9.206;2023-11-22T06:31:53;12.50;58.00
32394;DHT22;18853;45.426;9.206;2023-11-22T06:34:19;12.50;58.10
32394;DHT22;18853;45.426;9.206;2023-11-22T06:36:44;12.50;58.20
32394;DHT22;18853;45.426;9.206;2023-11-22T06:39:10;12.50;58.20
32394;DHT22;18853;45.426;9.206;2023-11-22T06:41:41;12.50;58.10
32394;DHT22;18853;45.426;9.206;2023-11-22T06:44:07;12.50;58.10
32394;DHT22;18853;45.426;9.206;2023-11-22T06:46:33;12.50;58.20
32394;DHT22;18853;45.426;9.206;2023-11-22T06:48:58;12.50;58.10
32394;DHT22;18853;45.426;9.206;2023-11-22T06:51:24;12.40;58.00
32394;DHT22;18853;45.426;9.206;2023-11-22T06:53:50;12.40;58.10
32394;DHT22;18853;45.426;9.206;2023-11-22T06:56:17;12.40;58.10
32394;DHT22;18853;45.426;9.206;2023-11-22T06:58:43;12.40;58.10
32394;DHT22;18853;45.426;9.206;2023-11-22T07:01:08;12.40;58.10
32394;DHT22;18853;45.426;9.206;2023-11-22T07:03:37;12.40;58.10
32394;DHT22;18853;45.426;9.206;2023-11-22T07:06:03;12.40;58.10
32394;DHT22;18853;45.426;9.206;2023-11-22T07:08:29;12.40;58.00
32394;DHT22;18853;45.426;9.206;2023-11-22T07:10:56;12.40;58.10
32394;DHT22;18853;45.426;9.206;2023-11-22T07:13:22;12.40;58.10
32394;DHT22;18853;45.426;9.206;2023-11-22T07:15:48;12.40;58.10
32394;DHT22;18853;45.426;9.206;2023-11-22T07:18:13;12.40;58.10
32394;DHT22;18853;45.426;9.206;2023-11-22T07:20:39;12.40;58.10
32394;DHT22;18853;45.426;9.206;2023-11-22T07:23:05;12.50;58.00
32394;DHT22;18853;45.426;9.206;2023-11-22T07:25:31;12.60;57.90
32394;DHT22;18853;45.426;9.206;2023-11-22T07:27:57;12.60;57.90
32394;DHT22;18853;45.426;9.206;2023-11-22T07:30:24;12.60;57.80
32394;DHT22;18853;45.426;9.206;2023-11-22T07:32:53;12.70;57.80
32394;DHT22;18853;45.426;9.206;2023-11-22T07:35:18;12.70;57.80
32394;DHT22;18853;45.426;9.206;2023-11-22T07:37:47;12.80;57.70
32394;DHT22;18853;45.426;9.206;2023-11-22T07:40:14;12.80;57.50
32394;DHT22;18853;45.426;9.206;2023-11-22T07:42:40;12.90;57.50
32394;DHT22;18853;45.426;9.206;2023-11-22T07:45:06;12.90;57.30
32394;DHT22;18853;45.426;9.206;2023-11-22T07:47:32;12.90;57.30
32394;DHT22;18853;45.426;9.206;2023-11-22T07:49:58;13.00;57.20
32394;DHT22;18853;45.426;9.206;2023-11-22T07:52:24;13.00;57.20
32394;DHT22;18853;45.426;9.206;2023-11-22T07:54:58;13.00;57.20
32394;DHT22;18853;45.426;9.206;2023-11-22T07:57:23;13.10;57.20
32394;DHT22;18853;45.426;9.206;2023-11-22T07:59:49;13.10;57.00
32394;DHT22;18853;45.426;9.206;2023-11-22T08:02:16;13.20;57.00
32394;DHT22;18853;45.426;9.206;2023-11-22T08:04:44;13.20;56.80
32394;DHT22;18853;45.426;9.206;2023-11-22T08:07:10;13.30;56.80
32394;DHT22;18853;45.426;9.206;2023-11-22T08:09:43;13.30;56.60
32394;DHT22;18853;45.426;9.206;2023-11-22T08:12:09;13.40;56.40
32394;DHT22;18853;45.426;9.206;2023-11-22T08:14:37;13.50;56.30
32394;DHT22;18853;45.426;9.206;2023-11-22T08:17:03;13.50;56.10
32394;DHT22;18853;45.426;9.206;2023-11-22T08:19:29;13.60;56.20
32394;DHT22;18853;45.426;9.206;2023-11-22T08:21:55;13.60;56.10
32394;DHT22;18853;45.426;9.206;2023-11-22T08:24:21;13.60;56.10
32394;DHT22;18853;45.426;9.206;2023-11-22T08:26:46;13.60;56.20
32394;DHT22;18853;45.426;9.206;2023-11-22T08:29:12;13.60;56.30
32394;DHT22;18853;45.426;9.206;2023-11-22T08:31:38;13.70;56.10
32394;DHT22;18853;45.426;9.206;2023-11-22T08:34:03;13.80;56.00
32394;DHT22;18853;45.426;9.206;2023-11-22T08:36:32;13.80;55.80
32394;DHT22;18853;45.426;9.206;2023-11-22T08:39:00;13.90;55.80
32394;DHT22;18853;45.426;9.206;2023-11-22T08:41:27;13.90;55.70
32394;DHT22;18853;45.426;9.206;2023-11-22T08:43:55;14.00;55.50
32394;DHT22;18853;45.426;9.206;2023-11-22T08:46:20;14.10;55.50
32394;DHT22;18853;45.426;9.206;2023-11-22T08:48:49;14.10;55.30
32394;DHT22;18853;45.426;9.206;2023-11-22T08:51:18;14.20;55.20
32394;DHT22;18853;45.426;9.206;2023-11-22T08:53:47;14.30;55.10
32394;DHT22;18853;45.426;9.206;2023-11-22T08:56:14;14.40;55.00
32394;DHT22;18853;45.426;9.206;2023-11-22T08:58:41;14.40;54.80
32394;DHT22;18853;45.426;9.206;2023-11-22T09:01:08;14.50;54.70
32394;DHT22;18853;45.426;9.206;2023-11-22T09:03:35;14.60;54.60
32394;DHT22;18853;45.426;9.206;2023-11-22T09:06:02;14.60;54.40
32394;DHT22;18853;45.426;9.206;2023-11-22T09:08:28;14.70;54.30
32394;DHT22;18853;45.426;9.206;2023-11-22T09:10:55;14.70;54.30
32394;DHT22;18853;45.426;9.206;2023-11-22T09:13:21;14.80;54.10
32394;DHT22;18853;45.426;9.206;2023-11-22T09:15:47;14.90;54.10
32394;DHT22;18853;45.426;9.206;2023-11-22T09:18:13;15.00;54.00
32394;DHT22;18853;45.426;9.206;2023-11-22T09:20:39;15.00;53.90
32394;DHT22;18853;45.426;9.206;2023-11-22T09:23:05;15.00;53.80
32394;DHT22;18853;45.426;9.206;2023-11-22T09:25:31;15.10;53.80
32394;DHT22;18853;45.426;9.206;2023-11-22T09:27:58;15.10;53.70
32394;DHT22;18853;45.426;9.206;2023-11-22T09:30:31;15.20;53.70
32394;DHT22;18853;45.426;9.206;2023-11-22T09:33:11;15.20;53.60
32394;DHT22;18853;45.426;9.206;2023-11-22T09:35:40;15.20;53.60
32394;DHT22;18853;45.426;9.206;2023-11-22T09:38:08;15.20;53.80
32394;DHT22;18853;45.426;9.206;2023-11-22T09:40:44;15.30;53.60
32394;DHT22;18853;45.426;9.206;2023-11-22T09:43:11;15.30;53.60
32394;DHT22;18853;45.426;9.206;2023-11-22T09:45:37;15.40;53.70
32394;DHT22;18853;45.426;9.206;2023-11-22T09:48:10;15.40;53.60
32394;DHT22;18853;45.426;9.206;2023-11-22T09:53:18;15.50;53.50
32394;DHT22;18853;45.426;9.206;2023-11-22T09:55:45;15.50;53.50
32394;DHT22;18853;45.426;9.206;2023-11-22T09:58:16;15.60;53.50
32394;DHT22;18853;45.426;9.206;2023-11-22T10:00:42;15.60;53.50
32394;DHT22;18853;45.426;9.206;2023-11-22T10:03:10;15.60;53.60
32394;DHT22;18853;45.426;9.206;2023-11-22T10:05:39;15.60;53.50
32394;DHT22;18853;45.426;9.206;2023-11-22T10:08:05;15.70;53.70
32394;DHT22;18853;45.426;9.206;2023-11-22T10:10:32;15.70;53.50
32394;DHT22;18853;45.426;9.206;2023-11-22T10:12:59;15.70;53.60
32394;DHT22;18853;45.426;9.206;2023-11-22T10:15:28;15.70;53.50
32394;DHT22;18853;45.426;9.206;2023-11-22T10:17:58;15.70;53.60
32394;DHT22;18853;45.426;9.206;2023-11-22T10:20:38;15.70;53.60
32394;DHT22;18853;45.426;9.206;2023-11-22T10:23:11;15.80;53.70
32394;DHT22;18853;45.426;9.206;2023-11-22T10:25:47;15.80;53.80
32394;DHT22;18853;45.426;9.206;2023-11-22T10:28:15;15.80;54.00
32394;DHT22;18853;45.426;9.206;2023-11-22T10:30:43;15.80;53.90
32394;DHT22;18853;45.426;9.206;2023-11-22T10:33:10;15.80;53.80
32394;DHT22;18853;45.426;9.206;2023-11-22T10:35:42;15.90;53.40
32394;DHT22;18853;45.426;9.206;2023-11-22T10:38:16;15.90;53.30
32394;DHT22;18853;45.426;9.206;2023-11-22T10:40:42;15.90;53.40
32394;DHT22;18853;45.426;9.206;2023-11-22T10:43:11;15.90;53.40
32394;DHT22;18853;45.426;9.206;2023-11-22T10:45:37;15.90;53.00
32394;DHT22;18853;45.426;9.206;2023-11-22T10:48:04;15.90;52.90
32394;DHT22;18853;45.426;9.206;2023-11-22T10:50:31;16.00;53.00
32394;DHT22;18853;45.426;9.206;2023-11-22T10:52:58;16.10;52.80
32394;DHT22;18853;45.426;9.206;2023-11-22T10:55:32;16.00;52.70
32394;DHT22;18853;45.426;9.206;2023-11-22T10:58:02;16.00;53.10
32394;DHT22;18853;45.426;9.206;2023-11-22T11:00:29;16.10;53.00
32394;DHT22;18853;45.426;9.206;2023-11-22T11:03:03;16.10;53.00
32394;DHT22;18853;45.426;9.206;2023-11-22T11:05:33;16.10;52.90
32394;DHT22;18853;45.426;9.206;2023-11-22T11:08:11;16.00;53.00
32394;DHT22;18853;45.426;9.206;2023-11-22T11:10:41;16.10;53.90
32394;DHT22;18853;45.426;9.206;2023-11-22T11:13:08;16.10;53.00
32394;DHT22;18853;45.426;9.206;2023-11-22T11:15:40;16.20;52.70
32394;DHT22;18853;45.426;9.206;2023-11-22T11:18:07;16.30;52.30
32394;DHT22;18853;45.426;9.206;2023-11-22T11:20:51;16.30;51.90
32394;DHT22;18853;45.426;9.206;2023-11-22T11:23:20;16.40;51.20
32394;DHT22;18853;45.426;9.206;2023-11-22T11:25:53;16.40;51.40
32394;DHT22;18853;45.426;9.206;2023-11-22T11:28:19;16.40;51.00
32394;DHT22;18853;45.426;9.206;2023-11-22T11:30:49;16.50;50.80
32394;DHT22;18853;45.426;9.206;2023-11-22T11:33:18;16.60;50.50
32394;DHT22;18853;45.426;9.206;2023-11-22T11:35:47;16.70;50.20
32394;DHT22;18853;45.426;9.206;2023-11-22T11:38:19;16.80;49.80
32394;DHT22;18853;45.426;9.206;2023-11-22T11:40:47;17.00;48.90
32394;DHT22;18853;45.426;9.206;2023-11-22T11:43:12;17.10;48.50
32394;DHT22;18853;45.426;9.206;2023-11-22T11:45:44;17.20;47.60
32394;DHT22;18853;45.426;9.206;2023-11-22T11:48:16;17.30;47.00
32394;DHT22;18853;45.426;9.206;2023-11-22T11:50:42;17.40;47.30
32394;DHT22;18853;45.426;9.206;2023-11-22T11:53:09;17.50;46.80
32394;DHT22;18853;45.426;9.206;2023-11-22T11:55:36;17.60;46.80
32394;DHT22;18853;45.426;9.206;2023-11-22T11:58:06;17.70;47.30
32394;DHT22;18853;45.426;9.206;2023-11-22T12:00:35;17.80;45.50
32394;DHT22;18853;45.426;9.206;2023-11-22T12:03:02;17.90;45.50
32394;DHT22;18853;45.426;9.206;2023-11-22T12:05:29;18.00;45.20
32394;DHT22;18853;45.426;9.206;2023-11-22T12:07:54;18.10;45.30
32394;DHT22;18853;45.426;9.206;2023-11-22T12:10:20;18.30;45.40
32394;DHT22;18853;45.426;9.206;2023-11-22T12:12:47;18.40;45.10
32394;DHT22;18853;45.426;9.206;2023-11-22T12:15:12;18.50;44.90
32394;DHT22;18853;45.426;9.206;2023-11-22T12:17:40;18.70;44.90
32394;DHT22;18853;45.426;9.206;2023-11-22T12:20:13;18.90;44.70
32394;DHT22;18853;45.426;9.206;2023-11-22T12:22:40;19.00;44.00
32394;DHT22;18853;45.426;9.206;2023-11-22T12:25:07;19.00;43.90
32394;DHT22;18853;45.426;9.206;2023-11-22T12:27:33;19.20;44.10
32394;DHT22;18853;45.426;9.206;2023-11-22T12:29:58;19.30;43.10
32394;DHT22;18853;45.426;9.206;2023-11-22T12:32:25;19.30;42.50
32394;DHT22;18853;45.426;9.206;2023-11-22T12:34:51;19.50;42.20
32394;DHT22;18853;45.426;9.206;2023-11-22T12:37:23;19.60;41.50
32394;DHT22;18853;45.426;9.206;2023-11-22T12:39:50;19.70;40.80
32394;DHT22;18853;45.426;9.206;2023-11-22T12:42:17;19.80;40.30
32394;DHT22;18853;45.426;9.206;2023-11-22T12:44:50;19.90;39.90
32394;DHT22;18853;45.426;9.206;2023-11-22T12:47:38;20.10;39.70
32394;DHT22;18853;45.426;9.206;2023-11-22T12:50:04;20.20;39.00
32394;DHT22;18853;45.426;9.206;2023-11-22T12:52:29;20.30;39.40
32394;DHT22;18853;45.426;9.206;2023-11-22T12:54:58;20.40;38.70
32394;DHT22;18853;45.426;9.206;2023-11-22T12:57:24;20.50;38.30
32394;DHT22;18853;45.426;9.206;2023-11-22T12:59:50;20.50;38.10
32394;DHT22;18853;45.426;9.206;2023-11-22T13:02:16;20.70;38.20
32394;DHT22;18853;45.426;9.206;2023-11-22T13:04:43;20.80;37.60
32394;DHT22;18853;45.426;9.206;2023-11-22T13:07:11;20.90;38.00
32394;DHT22;18853;45.426;9.206;2023-11-22T13:09:36;21.00;37.40
32394;DHT22;18853;45.426;9.206;2023-11-22T13:12:02;21.20;37.10
32394;DHT22;18853;45.426;9.206;2023-11-22T13:14:29;21.30;36.80
32394;DHT22;18853;45.426;9.206;2023-11-22T13:17:03;21.40;36.30
32394;DHT22;18853;45.426;9.206;2023-11-22T13:19:29;21.50;35.90
32394;DHT22;18853;45.426;9.206;2023-11-22T13:21:55;21.60;35.50
32394;DHT22;18853;45.426;9.206;2023-11-22T13:24:21;21.80;35.60
32394;DHT22;18853;45.426;9.206;2023-11-22T13:26:46;21.80;35.20
32394;DHT22;18853;45.426;9.206;2023-11-22T13:29:12;21.90;34.90
32394;DHT22;18853;45.426;9.206;2023-11-22T13:31:37;22.00;34.90
32394;DHT22;18853;45.426;9.206;2023-11-22T13:34:04;22.10;34.90
32394;DHT22;18853;45.426;9.206;2023-11-22T13:36:31;22.30;34.70
32394;DHT22;18853;45.426;9.206;2023-11-22T13:38:57;22.30;34.20
32394;DHT22;18853;45.426;9.206;2023-11-22T13:41:23;22.50;34.10
32394;DHT22;18853;45.426;9.206;2023-11-22T13:43:50;22.60;33.70
32394;DHT22;18853;45.426;9.206;2023-11-22T13:46:16;22.70;34.30
32394;DHT22;18853;45.426;9.206;2023-11-22T13:48:42;22.80;33.40
32394;DHT22;18853;45.426;9.206;2023-11-22T13:51:08;22.90;32.90
32394;DHT22;18853;45.426;9.206;2023-11-22T13:53:36;23.00;32.70
32394;DHT22;18853;45.426;9.206;2023-11-22T13:56:02;23.10;32.60
32394;DHT22;18853;45.426;9.206;2023-11-22T13:58:33;23.20;32.00
32394;DHT22;18853;45.426;9.206;2023-11-22T14:00:59;23.30;32.20
32394;DHT22;18853;45.426;9.206;2023-11-22T14:03:25;23.30;31.90
32394;DHT22;18853;45.426;9.206;2023-11-22T14:05:50;23.30;32.00
32394;DHT22;18853;45.426;9.206;2023-11-22T14:08:16;23.30;31.90
32394;DHT22;18853;45.426;9.206;2023-11-22T14:10:42;23.30;31.90
32394;DHT22;18853;45.426;9.206;2023-11-22T14:13:10;23.40;32.40
32394;DHT22;18853;45.426;9.206;2023-11-22T14:15:37;23.40;32.50
32394;DHT22;18853;45.426;9.206;2023-11-22T14:18:03;23.50;32.40
32394;DHT22;18853;45.426;9.206;2023-11-22T14:20:29;23.50;31.80
32394;DHT22;18853;45.426;9.206;2023-11-22T14:22:55;23.50;31.60
32394;DHT22;18853;45.426;9.206;2023-11-22T14:25:20;23.60;31.50
32394;DHT22;18853;45.426;9.206;2023-11-22T14:27:47;23.60;31.30
32394;DHT22;18853;45.426;9.206;2023-11-22T14:30:17;23.60;31.40
32394;DHT22;18853;45.426;9.206;2023-11-22T14:32:43;23.50;31.40
32394;DHT22;18853;45.426;9.206;2023-11-22T14:35:09;23.50;31.40
32394;DHT22;18853;45.426;9.206;2023-11-22T14:37:36;23.40;31.70
32394;DHT22;18853;45.426;9.206;2023-11-22T14:40:05;23.30;31.80
32394;DHT22;18853;45.426;9.206;2023-11-22T14:42:37;23.20;32.00
32394;DHT22;18853;45.426;9.206;2023-11-22T14:45:05;23.10;32.40
32394;DHT22;18853;45.426;9.206;2023-11-22T14:47:31;23.00;32.70
32394;DHT22;18853;45.426;9.206;2023-11-22T14:50:01;22.80;32.90
32394;DHT22;18853;45.426;9.206;2023-11-22T14:52:27;22.50;33.60
32394;DHT22;18853;45.426;9.206;2023-11-22T14:54:53;22.20;34.20
32394;DHT22;18853;45.426;9.206;2023-11-22T14:57:19;21.90;34.70
32394;DHT22;18853;45.426;9.206;2023-11-22T14:59:45;21.70;35.30
32394;DHT22;18853;45.426;9.206;2023-11-22T15:02:12;21.50;36.00
32394;DHT22;18853;45.426;9.206;2023-11-22T15:04:38;21.30;36.50
32394;DHT22;18853;45.426;9.206;2023-11-22T15:07:06;21.10;37.20
32394;DHT22;18853;45.426;9.206;2023-11-22T15:09:32;21.00;37.80
32394;DHT22;18853;45.426;9.206;2023-11-22T15:11:59;20.70;38.40
32394;DHT22;18853;45.426;9.206;2023-11-22T15:14:25;20.50;39.00
32394;DHT22;18853;45.426;9.206;2023-11-22T15:16:51;20.40;39.30
32394;DHT22;18853;45.426;9.206;2023-11-22T15:19:17;20.20;39.70
32394;DHT22;18853;45.426;9.206;2023-11-22T15:21:43;20.10;40.00
32394;DHT22;18853;45.426;9.206;2023-11-22T15:24:09;19.90;40.30
32394;DHT22;18853;45.426;9.206;2023-11-22T15:26:35;19.80;40.80
32394;DHT22;18853;45.426;9.206;2023-11-22T15:29:00;19.70;41.20
32394;DHT22;18853;45.426;9.206;2023-11-22T15:31:26;19.60;41.50